Garden City Regional Airport

Airport
ICAO code: 
KGCK
Summary
ICAO Region: 
NAM
Territory: 
Location: 
Garden City, Kansas,
Elevation: 
2891 ft
Coordinates: 
Aerial View: 
37° 55' 38.893" N, 100° 43' 19.673" W
Airport CFIT: 
Altimeter Temperature Error Correction
Metar
Observation
KGCK 040554Z AUTO 02010KT 10SM CLR 00/M04 A3019 RMK AO2 SLP224 T00001039 10111 21006 401671006 51010
Station
Garden City, Garden City Regional Airport
Date/Time
2021-12-04 05:54:00
Wind direction
20°
Wind speed
10 kts
Lowest cloud amount
n/a
Temperature
0°C
Dew point
-3.9°C
Humidity
74%
Weather condition
n/a

Description

Garden City Regional Airport is a public-use airport located 15 km southeast of the central business district of Garden City, in Finney County, Kansas.

Climatology

Semi-arid Steppe climate (Köppen climate classification BSk) - Little precipitation, hot summers and cold winters, sometimes with large changes in temperature in a 24 hour period

Runways

Designator Length Width Surface Rops
12/30 1737 30 CON Yes/Yes
17/35 2225 30 PEM Yes/Yes
Airport map: 
Aerial View: 

SKYbrary Partners:

Safety knowledge contributed by: